Time;durP1;ratioP1;P1;durP2;ratioP2;P2;SDS_P1;SDS_P2;PMS_P1;PMS_P2;Temp;Humidity;BMP_temperature;BMP_pressure;BME280_temperature;BME280_humidity;BME280_pressure;Samples;Min_cycle;Max_cycle;Signal;HPM_P1;HPM_P2
2022/07/13 00:00:11;;;;;;;2.35;1.00;;;14.40;99.90;;;;;;5051824;28;20316;-81
2022/07/13 00:02:36;;;;;;;0.65;0.65;;;14.40;99.90;;;;;;5052809;28;20183;-79
2022/07/13 00:05:02;;;;;;;1.95;1.00;;;14.40;99.90;;;;;;5051610;28;20583;-80
2022/07/13 00:07:28;;;;;;;0.68;0.68;;;14.50;99.90;;;;;;5053981;28;20243;-79
2022/07/13 00:09:53;;;;;;;0.95;0.95;;;14.50;99.90;;;;;;5052813;28;20538;-80
2022/07/13 00:12:19;;;;;;;0.82;0.82;;;14.60;99.90;;;;;;5052279;28;20176;-80
2022/07/13 00:14:44;;;;;;;0.77;0.75;;;14.50;99.90;;;;;;5034535;28;20175;-80
2022/07/13 00:17:10;;;;;;;0.43;0.43;;;14.50;99.90;;;;;;5035081;28;20192;-79
2022/07/13 00:19:36;;;;;;;0.65;0.65;;;14.60;99.90;;;;;;5053514;28;20184;-80
2022/07/13 00:22:01;;;;;;;0.80;0.80;;;14.70;99.90;;;;;;5051634;28;20184;-80
2022/07/13 00:24:27;;;;;;;0.88;0.80;;;14.80;99.90;;;;;;5053254;28;20785;-79
2022/07/13 00:26:52;;;;;;;2.45;0.90;;;14.70;99.90;;;;;;5035953;28;20215;-79
2022/07/13 00:29:18;;;;;;;1.00;0.73;;;14.80;99.90;;;;;;5052490;28;20206;-81
2022/07/13 00:31:46;;;;;;;0.70;0.65;;;14.90;99.90;;;;;;5051635;28;20199;-79
2022/07/13 00:34:12;;;;;;;0.80;0.80;;;14.90;99.90;;;;;;5052282;28;20233;-80
2022/07/13 00:36:38;;;;;;;1.17;0.75;;;14.90;99.90;;;;;;5052213;28;20251;-79
2022/07/13 00:39:03;;;;;;;0.60;0.60;;;15.00;99.90;;;;;;5052899;28;20263;-78
2022/07/13 00:41:29;;;;;;;0.60;0.60;;;15.10;99.90;;;;;;5053436;28;20180;-79
2022/07/13 00:44:06;;;;;;;0.60;0.60;;;15.10;99.90;;;;;;5052280;28;20262;-80
2022/07/13 00:46:32;;;;;;;1.08;0.75;;;15.10;99.90;;;;;;5052188;28;20202;-79
2022/07/13 00:49:00;;;;;;;1.10;0.80;;;15.20;99.90;;;;;;5053293;28;20176;-79
2022/07/13 00:51:26;;;;;;;0.77;0.57;;;15.20;99.90;;;;;;5035135;28;20253;-79
2022/07/13 00:53:52;;;;;;;0.70;0.70;;;15.30;99.90;;;;;;5052761;28;20283;-79
2022/07/13 00:56:18;;;;;;;0.50;0.50;;;15.20;99.90;;;;;;5052931;28;20183;-81
2022/07/13 00:58:44;;;;;;;0.52;0.50;;;15.30;99.90;;;;;;5052623;28;20530;-81
2022/07/13 01:01:10;;;;;;;0.70;0.70;;;15.50;99.90;;;;;;5051201;28;20172;-79
2022/07/13 01:03:36;;;;;;;0.88;0.88;;;15.50;99.90;;;;;;5053155;28;20702;-79
2022/07/13 01:06:03;;;;;;;0.35;0.35;;;15.50;99.90;;;;;;5051934;28;20188;-80
2022/07/13 01:08:29;;;;;;;0.60;0.60;;;15.50;99.90;;;;;;5049880;28;20283;-80
2022/07/13 01:10:55;;;;;;;1.98;0.70;;;15.50;99.90;;;;;;5034422;28;20180;-79
2022/07/13 01:13:22;;;;;;;0.68;0.68;;;15.50;99.90;;;;;;5052176;28;20192;-80
2022/07/13 01:15:48;;;;;;;0.50;0.50;;;15.40;99.90;;;;;;5051767;28;20172;-79
2022/07/13 01:18:14;;;;;;;0.77;0.70;;;15.50;99.90;;;;;;5050832;28;20267;-80
2022/07/13 01:20:41;;;;;;;0.60;0.60;;;15.50;99.90;;;;;;5052547;28;20184;-79
2022/07/13 01:23:11;;;;;;;0.68;0.68;;;15.50;99.90;;;;;;5052654;28;20187;-81
2022/07/13 01:25:38;;;;;;;0.60;0.60;;;15.60;99.90;;;;;;5051797;28;20215;-80
2022/07/13 01:28:04;;;;;;;0.70;0.70;;;15.60;99.90;;;;;;5051274;28;20175;-80
2022/07/13 01:30:30;;;;;;;0.32;0.32;;;15.60;99.90;;;;;;5052417;28;20648;-79
2022/07/13 01:32:55;;;;;;;0.57;0.57;;;15.70;99.90;;;;;;5051895;28;20699;-81
2022/07/13 01:35:23;;;;;;;0.70;0.60;;;15.80;99.90;;;;;;5051465;28;20194;-80
2022/07/13 01:37:49;;;;;;;0.70;0.70;;;15.80;99.90;;;;;;5035525;28;20221;-79
2022/07/13 01:40:16;;;;;;;5.13;0.95;;;15.90;99.90;;;;;;5050255;28;20176;-79
2022/07/13 01:42:44;;;;;;;1.35;0.80;;;15.90;99.90;;;;;;5052424;28;20175;-79
2022/07/13 01:45:11;;;;;;;0.50;0.50;;;15.90;99.90;;;;;;5053427;28;20222;-82
2022/07/13 01:47:41;;;;;;;0.40;0.40;;;15.90;99.90;;;;;;5054791;28;20672;-80
2022/07/13 01:50:10;;;;;;;1.85;0.43;;;15.90;99.90;;;;;;5054596;28;20274;-79
2022/07/13 01:52:37;;;;;;;0.65;0.60;;;15.90;99.90;;;;;;5054968;28;20180;-80
2022/07/13 01:55:04;;;;;;;1.08;0.70;;;16.00;99.90;;;;;;5055883;28;20183;-80
2022/07/13 01:57:30;;;;;;;0.40;0.40;;;16.20;99.90;;;;;;5054962;28;20188;-79
2022/07/13 02:00:09;;;;;;;1.15;0.80;;;16.10;99.90;;;;;;5055337;28;20183;-79
2022/07/13 02:02:35;;;;;;;1.10;0.60;;;16.10;99.90;;;;;;5055173;28;20713;-81
2022/07/13 02:05:00;;;;;;;1.75;1.60;;;16.30;99.90;;;;;;5036477;28;20310;-81
2022/07/13 02:07:26;;;;;;;1.08;0.65;;;16.30;99.90;;;;;;5055311;28;20172;-79
2022/07/13 02:09:51;;;;;;;1.05;0.60;;;16.30;99.90;;;;;;5056171;28;20194;-79
2022/07/13 02:12:18;;;;;;;0.70;0.70;;;16.30;99.90;;;;;;5055630;28;20246;-81
2022/07/13 02:14:43;;;;;;;5.53;0.90;;;16.30;99.90;;;;;;5054354;28;20188;-80
2022/07/13 02:17:09;;;;;;;0.40;0.40;;;16.40;99.90;;;;;;5055226;28;20230;-79
2022/07/13 02:19:35;;;;;;;0.70;0.70;;;16.40;99.90;;;;;;5054026;28;20187;-80
2022/07/13 02:22:01;;;;;;;0.70;0.68;;;16.40;99.90;;;;;;5054888;28;20922;-80
2022/07/13 02:24:27;;;;;;;0.50;0.50;;;16.40;99.90;;;;;;5053670;28;20668;-80
2022/07/13 02:26:52;;;;;;;1.05;0.90;;;16.40;99.90;;;;;;5053706;28;20175;-79
2022/07/13 02:29:18;;;;;;;0.60;0.60;;;16.40;99.90;;;;;;5036244;28;20655;-80
2022/07/13 02:31:43;;;;;;;0.60;0.60;;;16.40;99.90;;;;;;5036738;28;20209;-79
2022/07/13 02:34:09;;;;;;;0.63;0.63;;;16.40;99.90;;;;;;5054521;28;20192;-79
2022/07/13 02:36:35;;;;;;;1.13;0.90;;;16.40;99.90;;;;;;5054676;28;20208;-81
2022/07/13 02:39:00;;;;;;;0.80;0.80;;;16.40;99.90;;;;;;5054161;28;20193;-80
2022/07/13 02:41:26;;;;;;;1.13;1.02;;;16.40;99.90;;;;;;5055646;28;20207;-79
2022/07/13 02:43:52;;;;;;;0.93;0.82;;;16.40;99.90;;;;;;5054601;28;20220;-78
2022/07/13 02:46:17;;;;;;;0.60;0.60;;;16.50;99.90;;;;;;5054303;28;20237;-80
2022/07/13 02:48:43;;;;;;;0.73;0.60;;;16.50;99.90;;;;;;5036162;28;20629;-79
2022/07/13 02:51:08;;;;;;;0.85;0.80;;;16.50;99.90;;;;;;5054492;28;20179;-79
2022/07/13 02:53:34;;;;;;;1.02;1.00;;;16.50;99.90;;;;;;5054750;28;20188;-81
2022/07/13 02:55:59;;;;;;;0.82;0.82;;;16.50;99.90;;;;;;5052088;28;20245;-80
2022/07/13 02:58:25;;;;;;;0.70;0.70;;;16.40;99.90;;;;;;5054965;28;20210;-80
2022/07/13 03:00:51;;;;;;;0.90;0.90;;;16.40;99.90;;;;;;5053402;28;20207;-81
2022/07/13 03:03:17;;;;;;;0.65;0.65;;;16.40;99.90;;;;;;5053857;28;20541;-84
2022/07/13 03:05:42;;;;;;;0.95;0.77;;;16.40;99.90;;;;;;5053758;28;20241;-80
2022/07/13 03:08:08;;;;;;;0.90;0.82;;;16.40;99.90;;;;;;5035933;28;20172;-80
2022/07/13 03:10:34;;;;;;;1.65;0.85;;;16.30;99.90;;;;;;5053644;28;20172;-81
2022/07/13 03:12:59;;;;;;;1.35;1.20;;;16.10;99.90;;;;;;5053378;28;20205;-80
2022/07/13 03:15:25;;;;;;;0.73;0.68;;;16.00;99.90;;;;;;5053495;28;20544;-82
2022/07/13 03:17:50;;;;;;;2.35;1.50;;;15.80;99.90;;;;;;5035467;28;20598;-81
2022/07/13 03:20:16;;;;;;;1.40;0.82;;;15.70;99.90;;;;;;5053965;28;20239;-80
2022/07/13 03:22:42;;;;;;;0.80;0.77;;;15.70;99.90;;;;;;5054515;28;20219;-81
2022/07/13 03:25:08;;;;;;;0.75;0.70;;;15.70;99.90;;;;;;5055428;28;20227;-81
2022/07/13 03:27:33;;;;;;;1.30;1.05;;;15.80;99.90;;;;;;5050481;28;20180;-81
2022/07/13 03:29:59;;;;;;;0.80;0.80;;;15.80;99.90;;;;;;5043408;28;20680;-83
2022/07/13 03:32:25;;;;;;;2.40;0.93;;;15.80;99.90;;;;;;5036541;28;20173;-85
2022/07/13 03:34:51;;;;;;;2.72;0.73;;;15.90;99.90;;;;;;5069801;28;20264;-82
2022/07/13 03:37:16;;;;;;;1.48;1.00;;;15.90;99.90;;;;;;5066552;28;20184;-85
2022/07/13 03:39:42;;;;;;;1.20;1.10;;;16.00;99.90;;;;;;5059516;28;20252;-81
2022/07/13 03:42:07;;;;;;;1.40;1.00;;;16.10;99.90;;;;;;5049050;28;20560;-81
2022/07/13 03:44:33;;;;;;;1.17;0.65;;;16.20;99.90;;;;;;5039163;28;20208;-82
2022/07/13 03:47:00;;;;;;;1.00;0.82;;;16.30;99.90;;;;;;5064549;28;20203;-81
2022/07/13 03:49:25;;;;;;;1.27;0.90;;;16.30;99.90;;;;;;5068480;28;20172;-87
2022/07/13 03:51:51;;;;;;;0.73;0.73;;;16.40;99.90;;;;;;5066511;28;20199;-80
2022/07/13 03:54:17;;;;;;;1.40;0.85;;;16.40;99.90;;;;;;5040273;28;20187;-80
2022/07/13 03:56:42;;;;;;;1.85;0.77;;;16.40;99.90;;;;;;5035097;28;20181;-80
2022/07/13 03:59:08;;;;;;;0.98;0.98;;;16.40;99.90;;;;;;5037239;28;20197;-80
2022/07/13 04:01:33;;;;;;;1.35;1.13;;;16.40;99.90;;;;;;5035357;28;20180;-80
2022/07/13 04:03:59;;;;;;;1.13;1.00;;;16.50;99.90;;;;;;5034538;28;20196;-80
2022/07/13 04:06:25;;;;;;;0.90;0.80;;;16.60;99.90;;;;;;5033973;28;20254;-81
2022/07/13 04:08:51;;;;;;;0.77;0.60;;;16.60;99.90;;;;;;5033843;28;20194;-80
2022/07/13 04:11:17;;;;;;;1.67;1.30;;;16.70;99.90;;;;;;5033453;28;20172;-81
2022/07/13 04:13:43;;;;;;;2.22;0.90;;;16.70;99.90;;;;;;5033975;28;20180;-80
2022/07/13 04:16:09;;;;;;;2.67;1.02;;;16.80;99.90;;;;;;5033955;28;20718;-80
2022/07/13 04:18:35;;;;;;;1.17;0.90;;;16.80;99.90;;;;;;5033239;28;20637;-80
2022/07/13 04:21:01;;;;;;;1.70;1.20;;;16.70;99.90;;;;;;5033967;28;20180;-80
2022/07/13 04:23:29;;;;;;;0.90;0.80;;;16.70;99.90;;;;;;5033538;28;20622;-80
2022/07/13 04:25:55;;;;;;;1.02;0.98;;;16.70;99.90;;;;;;5016084;28;20657;-80
2022/07/13 04:28:21;;;;;;;0.70;0.70;;;16.80;99.90;;;;;;5015258;28;20207;-80
2022/07/13 04:30:47;;;;;;;1.17;0.80;;;16.90;99.90;;;;;;5033175;28;20227;-80
2022/07/13 04:33:13;;;;;;;0.93;0.82;;;16.90;99.90;;;;;;5032783;28;20176;-81
2022/07/13 04:35:39;;;;;;;1.95;1.00;;;16.90;99.90;;;;;;5039143;28;20182;-81
2022/07/13 04:38:05;;;;;;;1.10;0.60;;;16.90;99.90;;;;;;5052956;28;20176;-80
2022/07/13 04:40:30;;;;;;;1.55;0.93;;;16.80;99.90;;;;;;5051499;28;20282;-81
2022/07/13 04:42:56;;;;;;;1.08;1.00;;;16.90;99.90;;;;;;5041036;28;20212;-81
2022/07/13 04:45:21;;;;;;;1.48;0.60;;;16.90;99.90;;;;;;5015663;28;20223;-82
2022/07/13 04:47:48;;;;;;;6.53;1.17;;;16.80;99.90;;;;;;5042284;28;20520;-80
2022/07/13 04:50:14;;;;;;;0.95;0.80;;;16.70;99.90;;;;;;5053198;28;20184;-80
2022/07/13 04:52:40;;;;;;;1.80;0.85;;;16.70;99.90;;;;;;5052720;28;20172;-80
2022/07/13 04:55:07;;;;;;;4.25;1.13;;;16.60;99.90;;;;;;5052950;28;20191;-80
2022/07/13 04:57:33;;;;;;;1.10;1.00;;;16.60;99.90;;;;;;5034536;28;20642;-81
2022/07/13 04:59:58;;;;;;;1.90;1.10;;;16.60;99.90;;;;;;5052064;28;20339;-80
2022/07/13 05:02:24;;;;;;;0.63;0.63;;;16.60;99.90;;;;;;5051854;28;20304;-80
2022/07/13 05:04:50;;;;;;;0.65;0.50;;;16.60;99.90;;;;;;5051038;28;20600;-80
2022/07/13 05:07:15;;;;;;;0.95;0.80;;;16.70;99.90;;;;;;5052056;28;20661;-83
2022/07/13 05:09:41;;;;;;;1.95;1.13;;;16.70;99.90;;;;;;5032123;28;20184;-80
2022/07/13 05:12:07;;;;;;;0.73;0.73;;;16.70;99.90;;;;;;5015566;28;20169;-81
2022/07/13 05:14:32;;;;;;;2.85;0.77;;;16.70;99.90;;;;;;5051042;28;20188;-80
2022/07/13 05:16:58;;;;;;;0.93;0.93;;;16.70;99.90;;;;;;5033509;28;20176;-80
2022/07/13 05:19:23;;;;;;;11.93;1.38;;;16.70;99.90;;;;;;5052278;28;20214;-81
2022/07/13 05:25:11;;;;;;;1.33;1.13;;;16.60;99.90;;;;;;5273845;22;20229;-82
2022/07/13 05:27:37;;;;;;;1.45;1.02;;;16.70;99.90;;;;;;5010592;28;20237;-81
2022/07/13 05:30:03;;;;;;;1.05;0.70;;;16.70;99.90;;;;;;5011370;28;20251;-83
2022/07/13 05:32:29;;;;;;;0.88;0.85;;;16.70;99.90;;;;;;5011669;28;20181;-81
2022/07/13 05:34:54;;;;;;;1.00;0.90;;;16.70;99.90;;;;;;5011095;28;20200;-80
2022/07/13 05:37:20;;;;;;;1.10;1.00;;;16.70;99.90;;;;;;5011109;28;20173;-80
2022/07/13 05:39:46;;;;;;;0.80;0.80;;;16.70;99.90;;;;;;5012512;28;20192;-79
2022/07/13 05:42:13;;;;;;;0.50;0.50;;;16.70;99.90;;;;;;5007425;28;20184;-82
2022/07/13 05:44:41;;;;;;;0.80;0.80;;;16.70;99.90;;;;;;5006289;28;20223;-80
2022/07/13 05:47:06;;;;;;;0.82;0.82;;;16.80;99.90;;;;;;5012143;28;20176;-80
2022/07/13 05:49:33;;;;;;;0.93;0.70;;;16.80;99.90;;;;;;5007906;28;20548;-82
2022/07/13 05:51:59;;;;;;;1.17;1.08;;;16.80;99.90;;;;;;4992603;28;20240;-80
2022/07/13 05:54:25;;;;;;;0.80;0.80;;;16.80;99.90;;;;;;5002949;28;20721;-80
2022/07/13 05:56:50;;;;;;;2.50;1.48;;;16.80;99.90;;;;;;5012938;28;20181;-80
2022/07/13 05:59:16;;;;;;;0.80;0.80;;;16.90;99.90;;;;;;5010993;28;20185;-80
2022/07/13 06:01:42;;;;;;;0.80;0.80;;;16.80;99.90;;;;;;5007433;28;20254;-80
2022/07/13 06:04:07;;;;;;;0.52;0.52;;;16.80;99.90;;;;;;5008966;28;20559;-80
2022/07/13 06:06:33;;;;;;;0.80;0.80;;;16.80;99.90;;;;;;5007174;28;20185;-80
2022/07/13 06:08:58;;;;;;;1.65;0.80;;;16.80;99.90;;;;;;5005281;28;20655;-80
2022/07/13 06:11:24;;;;;;;0.90;0.90;;;16.70;99.90;;;;;;5009727;28;20754;-79
2022/07/13 06:13:49;;;;;;;1.10;0.80;;;16.60;99.90;;;;;;5007776;28;20198;-80
2022/07/13 06:16:15;;;;;;;0.90;0.90;;;16.50;99.90;;;;;;5006244;28;20823;-82
2022/07/13 06:18:41;;;;;;;0.73;0.70;;;16.40;99.90;;;;;;5006769;28;20199;-81
2022/07/13 06:21:06;;;;;;;1.60;1.00;;;16.40;99.90;;;;;;5007588;28;20638;-82
2022/07/13 06:23:32;;;;;;;0.93;0.68;;;16.40;99.90;;;;;;5005039;28;20531;-83
2022/07/13 06:25:58;;;;;;;1.40;1.25;;;16.50;99.90;;;;;;5004224;28;20192;-80
2022/07/13 06:28:24;;;;;;;1.17;0.80;;;16.50;99.90;;;;;;5003860;28;21163;-81
2022/07/13 06:30:49;;;;;;;0.93;0.90;;;16.50;99.90;;;;;;4990533;28;20189;-81
2022/07/13 06:33:15;;;;;;;1.55;1.10;;;16.60;99.90;;;;;;5009272;28;20197;-82
2022/07/13 06:35:40;;;;;;;2.33;1.20;;;16.70;99.90;;;;;;5007164;28;20189;-81
2022/07/13 06:38:06;;;;;;;0.73;0.73;;;16.80;99.90;;;;;;4991557;28;20201;-80
2022/07/13 06:40:32;;;;;;;0.70;0.70;;;16.90;99.90;;;;;;5007550;28;20239;-83
2022/07/13 06:42:57;;;;;;;1.13;1.00;;;16.90;99.90;;;;;;5006756;28;20197;-82
2022/07/13 06:45:23;;;;;;;4.03;1.52;;;16.90;99.90;;;;;;5006616;28;20571;-82
2022/07/13 06:47:51;;;;;;;0.90;0.90;;;17.00;99.90;;;;;;5010548;28;20204;-80
2022/07/13 06:50:17;;;;;;;1.00;0.90;;;17.00;99.90;;;;;;5012671;28;20192;-80
2022/07/13 06:52:44;;;;;;;1.77;0.85;;;17.00;99.90;;;;;;5011534;28;20201;-81
2022/07/13 06:55:10;;;;;;;1.10;1.00;;;17.00;99.90;;;;;;5013194;28;20185;-80
2022/07/13 06:57:36;;;;;;;1.10;1.00;;;17.00;99.90;;;;;;5017750;28;20646;-80
2022/07/13 07:00:04;;;;;;;0.80;0.80;;;17.10;99.90;;;;;;5013365;28;20192;-80
2022/07/13 07:02:30;;;;;;;0.88;0.75;;;17.00;99.90;;;;;;5014070;28;20760;-80
2022/07/13 07:04:56;;;;;;;1.67;0.93;;;17.10;99.90;;;;;;5025520;28;20213;-80
2022/07/13 07:07:22;;;;;;;0.68;0.68;;;17.00;99.90;;;;;;5007871;28;20525;-80
2022/07/13 07:09:48;;;;;;;1.30;0.98;;;17.00;99.90;;;;;;5012121;28;20196;-79
2022/07/13 07:12:13;;;;;;;1.15;1.05;;;17.10;99.90;;;;;;5012736;28;20193;-80
2022/07/13 07:14:39;;;;;;;0.88;0.88;;;17.10;99.90;;;;;;4999817;28;20659;-82
2022/07/13 07:17:04;;;;;;;0.98;0.98;;;17.10;99.90;;;;;;5004180;28;20658;-81
2022/07/13 07:19:30;;;;;;;2.05;0.80;;;17.20;99.90;;;;;;5004287;28;20219;-82
2022/07/13 07:21:56;;;;;;;0.82;0.82;;;17.20;99.90;;;;;;5007226;28;20779;-81
2022/07/13 07:24:22;;;;;;;0.70;0.70;;;17.80;99.90;;;;;;5012813;28;20216;-81
2022/07/13 07:26:48;;;;;;;2.55;0.88;;;17.30;99.90;;;;;;5011957;28;20781;-80
2022/07/13 07:29:15;;;;;;;0.80;0.73;;;17.30;99.90;;;;;;5007173;28;20230;-80
2022/07/13 07:31:40;;;;;;;0.80;0.80;;;17.30;99.90;;;;;;5010878;28;20207;-80
2022/07/13 07:34:06;;;;;;;0.73;0.68;;;17.40;99.90;;;;;;5015447;28;20658;-79
2022/07/13 07:36:34;;;;;;;6.68;1.35;;;17.40;99.90;;;;;;5011589;28;20659;-80
2022/07/13 07:39:00;;;;;;;1.02;0.95;;;17.50;99.90;;;;;;5011246;28;20238;-80
2022/07/13 07:41:26;;;;;;;0.98;0.80;;;17.60;99.90;;;;;;5011180;28;20642;-79
2022/07/13 07:43:51;;;;;;;0.70;0.70;;;17.60;99.90;;;;;;5012223;28;20309;-84
2022/07/13 07:46:17;;;;;;;0.85;0.60;;;17.70;99.90;;;;;;5022274;28;20200;-79
2022/07/13 07:48:43;;;;;;;0.55;0.55;;;17.70;99.90;;;;;;5011740;28;20185;-79
2022/07/13 07:51:08;;;;;;;1.52;0.70;;;17.80;99.90;;;;;;5011796;28;20292;-79
2022/07/13 07:53:34;;;;;;;1.23;1.08;;;17.90;99.90;;;;;;5011163;28;20281;-79
2022/07/13 07:55:59;;;;;;;0.77;0.77;;;17.90;99.90;;;;;;5009333;28;20223;-79
2022/07/13 07:58:27;;;;;;;0.65;0.65;;;17.80;99.90;;;;;;5010237;28;20654;-80
2022/07/13 08:00:53;;;;;;;0.75;0.68;;;17.90;99.90;;;;;;5019753;28;20190;-79
2022/07/13 08:03:19;;;;;;;0.70;0.70;;;17.90;99.90;;;;;;5009255;28;20551;-80
2022/07/13 08:05:48;;;;;;;0.60;0.60;;;17.90;99.90;;;;;;5009061;28;20267;-80
2022/07/13 08:08:30;;;;;;;1.38;1.27;;;18.00;99.90;;;;;;5010672;28;20193;-81
2022/07/13 08:10:56;;;;;;;1.90;0.98;;;18.10;99.90;;;;;;5012321;28;20182;-81
2022/07/13 08:13:22;;;;;;;0.80;0.80;;;18.10;99.90;;;;;;5009479;28;20239;-80
2022/07/13 08:15:47;;;;;;;3.13;1.08;;;18.20;99.90;;;;;;5011545;28;20268;-80
2022/07/13 08:18:13;;;;;;;0.57;0.57;;;18.20;99.90;;;;;;5010822;28;20893;-81
2022/07/13 08:20:39;;;;;;;1.15;0.95;;;18.30;99.90;;;;;;5009947;28;20197;-80
2022/07/13 08:23:51;;;;;;;1.10;1.00;;;18.30;99.90;;;;;;4994928;28;20177;-80
2022/07/13 08:25:50;;;;;;;1.67;0.77;;;18.20;99.90;;;;;;5007567;28;20231;-79
2022/07/13 08:28:15;;;;;;;0.70;0.70;;;18.30;99.90;;;;;;5021449;28;20237;-81
2022/07/13 08:30:41;;;;;;;0.80;0.80;;;18.30;99.90;;;;;;4996613;28;20189;-80
2022/07/13 08:33:07;;;;;;;1.08;0.77;;;18.30;99.90;;;;;;5012572;28;20323;-81
2022/07/13 08:38:35;;;;;;;0.80;0.80;;;18.30;99.90;;;;;;5016699;28;20196;-80
2022/07/13 08:41:01;;;;;;;1.13;0.90;;;18.30;99.90;;;;;;5008882;28;20253;-82
2022/07/13 08:43:27;;;;;;;1.15;0.82;;;18.40;99.90;;;;;;4999874;28;20248;-81
2022/07/13 08:45:53;;;;;;;0.85;0.77;;;18.40;99.90;;;;;;5001839;28;20209;-82
2022/07/13 08:48:31;;;;;;;2.22;1.30;;;18.40;99.90;;;;;;4997447;28;20221;-83
2022/07/13 08:50:57;;;;;;;1.17;0.98;;;18.50;99.90;;;;;;5022323;28;20181;-81
2022/07/13 08:53:23;;;;;;;0.90;0.90;;;18.40;99.90;;;;;;4990791;28;20293;-80
2022/07/13 08:55:49;;;;;;;0.77;0.77;;;18.40;99.90;;;;;;5010663;28;20212;-79
2022/07/13 08:58:16;;;;;;;1.50;0.88;;;18.50;99.90;;;;;;5010539;28;20214;-80
2022/07/13 09:00:42;;;;;;;1.75;0.90;;;18.50;99.90;;;;;;5003466;28;20190;-80
2022/07/13 09:03:08;;;;;;;1.35;1.10;;;18.60;99.90;;;;;;5006734;28;21138;-83
2022/07/13 09:05:34;;;;;;;0.90;0.90;;;18.70;99.90;;;;;;5000339;28;20226;-81
2022/07/13 09:08:03;;;;;;;2.25;1.23;;;18.80;99.90;;;;;;5012264;28;20206;-80
2022/07/13 09:10:29;;;;;;;0.90;0.90;;;18.80;99.90;;;;;;5011840;28;20252;-81
2022/07/13 09:12:55;;;;;;;1.20;1.10;;;18.90;99.90;;;;;;5011628;28;20192;-81
2022/07/13 09:15:21;;;;;;;2.13;0.77;;;18.90;99.90;;;;;;5011853;28;20181;-80
2022/07/13 09:17:47;;;;;;;1.60;1.50;;;18.90;99.90;;;;;;5012864;28;20189;-82
2022/07/13 09:20:13;;;;;;;1.67;1.00;;;19.00;99.90;;;;;;5025789;28;20195;-81
2022/07/13 09:22:55;;;;;;;1.30;1.20;;;19.00;99.90;;;;;;5026268;28;20173;-81
2022/07/13 09:25:37;;;;;;;1.35;0.90;;;19.10;99.90;;;;;;5026428;28;20220;-81
2022/07/13 09:28:08;;;;;;;0.77;0.77;;;19.10;99.90;;;;;;5014108;28;20239;-82
2022/07/13 09:30:35;;;;;;;1.00;0.98;;;19.30;99.90;;;;;;5013955;28;20354;-83
2022/07/13 09:33:02;;;;;;;0.85;0.85;;;19.40;99.90;;;;;;5015092;28;20189;-81
2022/07/13 09:35:47;;;;;;;1.00;0.77;;;19.50;99.90;;;;;;5017474;28;20188;-83
2022/07/13 09:38:29;;;;;;;0.73;0.73;;;19.60;99.90;;;;;;5035566;28;20173;-87
2022/07/13 09:40:56;;;;;;;0.95;0.70;;;19.90;99.90;;;;;;5035759;28;20185;-85
2022/07/13 09:46:09;;;;;;;1.90;0.80;;;20.40;99.90;;;;;;5028500;28;20215;-81
2022/07/13 09:48:38;;;;;;;0.68;0.68;;;20.70;99.90;;;;;;5016878;28;20200;-82
2022/07/13 09:51:05;;;;;;;0.50;0.50;;;21.00;99.90;;;;;;5021602;28;20205;-82
2022/07/13 09:53:36;;;;;;;0.68;0.68;;;21.20;99.90;;;;;;5034806;28;20196;-82
2022/07/13 09:56:04;;;;;;;1.15;0.90;;;21.20;99.90;;;;;;5036046;28;20364;-81
2022/07/13 09:58:32;;;;;;;0.95;0.60;;;21.20;99.90;;;;;;5028892;28;20656;-80
2022/07/13 10:00:59;;;;;;;1.10;0.93;;;21.20;99.90;;;;;;5012859;28;20626;-81
2022/07/13 10:03:29;;;;;;;0.88;0.85;;;21.20;99.90;;;;;;5013746;28;20209;-85
2022/07/13 10:05:55;;;;;;;1.52;0.80;;;21.20;99.90;;;;;;5013955;28;20205;-81
2022/07/13 10:08:22;;;;;;;0.52;0.52;;;21.20;99.90;;;;;;5016641;28;20264;-80
2022/07/13 10:10:48;;;;;;;0.70;0.70;;;21.20;99.90;;;;;;5013769;28;20510;-81
2022/07/13 10:13:15;;;;;;;0.65;0.65;;;21.20;99.90;;;;;;5015746;28;20200;-82
2022/07/13 10:15:41;;;;;;;0.50;0.50;;;21.20;99.90;;;;;;5015716;28;20188;-83
2022/07/13 10:18:09;;;;;;;1.25;0.77;;;21.30;99.90;;;;;;5015057;28;20182;-82
2022/07/13 10:20:38;;;;;;;0.75;0.75;;;21.30;99.90;;;;;;5015838;28;20181;-81
2022/07/13 10:23:04;;;;;;;0.45;0.45;;;21.30;99.90;;;;;;5015895;28;20403;-82
2022/07/13 10:25:44;;;;;;;1.25;0.63;;;21.40;99.90;;;;;;5008079;28;20295;-80
2022/07/13 10:28:14;;;;;;;0.70;0.70;;;21.40;99.90;;;;;;5014452;28;20298;-79
2022/07/13 10:30:40;;;;;;;0.60;0.60;;;21.40;99.90;;;;;;5004598;28;20733;-80
2022/07/13 10:33:20;;;;;;;1.15;0.60;;;21.40;99.90;;;;;;5008867;28;20229;-80
2022/07/13 10:35:48;;;;;;;0.85;0.80;;;21.50;99.90;;;;;;5012859;28;20201;-82
2022/07/13 10:38:18;;;;;;;0.95;0.60;;;21.50;99.90;;;;;;5004515;28;20189;-82
2022/07/13 10:40:44;;;;;;;3.05;0.60;;;21.50;99.90;;;;;;5012365;28;20555;-81
2022/07/13 10:43:13;;;;;;;2.70;0.80;;;21.60;99.90;;;;;;5015404;28;20185;-81
2022/07/13 10:45:43;;;;;;;1.20;1.00;;;21.70;99.90;;;;;;5011575;28;20206;-81
2022/07/13 10:48:24;;;;;;;1.15;1.02;;;21.80;99.90;;;;;;5012229;28;20369;-80
2022/07/13 10:50:58;;;;;;;0.57;0.57;;;21.90;99.90;;;;;;5013094;28;20623;-81
2022/07/13 10:53:39;;;;;;;0.40;0.40;;;22.00;99.90;;;;;;5003317;28;20209;-83
2022/07/13 10:56:17;;;;;;;0.45;0.40;;;22.00;99.90;;;;;;5000124;28;20189;-81
2022/07/13 10:58:44;;;;;;;0.60;0.60;;;22.00;99.90;;;;;;5013762;28;20194;-81
2022/07/13 11:01:39;;;;;;;1.77;0.85;;;22.00;99.90;;;;;;5005743;28;20220;-81
2022/07/13 11:04:06;;;;;;;1.08;0.98;;;21.90;99.90;;;;;;5000781;28;20224;-81
2022/07/13 11:06:32;;;;;;;0.65;0.65;;;21.80;99.90;;;;;;5004089;28;20583;-87
2022/07/13 11:09:20;;;;;;;0.80;0.80;;;21.80;99.90;;;;;;5010774;28;20181;-81
2022/07/13 11:11:53;;;;;;;1.20;0.50;;;21.70;99.90;;;;;;5007620;28;20189;-81
2022/07/13 11:14:40;;;;;;;0.75;0.65;;;21.70;99.90;;;;;;5006549;28;20280;-82
2022/07/13 11:17:35;;;;;;;0.85;0.70;;;21.70;99.90;;;;;;5009210;28;20244;-82
2022/07/13 11:20:09;;;;;;;1.38;0.70;;;21.70;99.90;;;;;;4999289;28;20227;-80
2022/07/13 11:25:45;;;;;;;0.60;0.60;;;21.70;99.90;;;;;;4992034;28;20240;-81
2022/07/13 11:28:31;;;;;;;0.60;0.60;;;21.70;99.90;;;;;;5009028;28;20690;-81
2022/07/13 11:30:56;;;;;;;0.60;0.60;;;21.70;99.90;;;;;;5008836;28;20196;-80
2022/07/13 11:33:23;;;;;;;0.57;0.57;;;21.80;99.90;;;;;;5010042;28;20544;-84
2022/07/13 11:35:49;;;;;;;0.60;0.60;;;21.90;99.90;;;;;;5005422;28;20185;-82
2022/07/13 11:38:16;;;;;;;1.33;0.82;;;22.10;99.90;;;;;;5002831;28;20709;-81
2022/07/13 11:40:43;;;;;;;0.73;0.70;;;22.30;99.90;;;;;;5011064;28;20192;-81
2022/07/13 11:43:09;;;;;;;0.70;0.70;;;22.50;99.90;;;;;;5010992;28;20189;-80
2022/07/13 11:45:39;;;;;;;0.50;0.50;;;22.70;99.90;;;;;;5007405;28;20206;-82
2022/07/13 11:48:09;;;;;;;0.43;0.43;;;22.90;99.90;;;;;;5008363;28;20260;-80
2022/07/13 11:50:46;;;;;;;1.05;0.47;;;23.00;99.90;;;;;;5011298;28;20177;-80
2022/07/13 11:53:25;;;;;;;1.35;0.60;;;23.10;99.10;;;;;;5002101;28;20268;-81
2022/07/13 11:55:51;;;;;;;0.63;0.63;;;23.20;99.20;;;;;;5009560;28;20184;-84
2022/07/13 11:58:24;;;;;;;2.30;0.47;;;23.30;98.00;;;;;;5007696;28;20288;-80
2022/07/13 12:00:50;;;;;;;0.70;0.70;;;23.40;97.00;;;;;;5008170;28;20216;-80
2022/07/13 12:03:23;;;;;;;1.30;0.63;;;23.60;97.50;;;;;;4977197;28;20647;-82
2022/07/13 12:05:49;;;;;;;1.02;0.68;;;23.70;95.90;;;;;;5006672;28;20292;-82
2022/07/13 12:08:16;;;;;;;2.08;1.23;;;23.70;96.20;;;;;;5013355;28;20287;-82
2022/07/13 12:10:42;;;;;;;0.77;0.50;;;23.70;95.60;;;;;;4999856;28;20507;-82
2022/07/13 12:13:08;;;;;;;0.60;0.50;;;23.70;95.40;;;;;;5008371;28;20681;-81
2022/07/13 12:15:34;;;;;;;3.88;0.40;;;23.80;95.40;;;;;;5006641;28;20288;-81
2022/07/13 12:18:04;;;;;;;1.15;0.70;;;23.90;96.90;;;;;;5010933;28;20182;-82
2022/07/13 12:20:33;;;;;;;0.68;0.65;;;24.20;96.00;;;;;;5018750;28;20643;-83
2022/07/13 12:22:59;;;;;;;1.23;0.73;;;24.30;93.80;;;;;;5006722;28;20177;-81
2022/07/13 12:25:41;;;;;;;0.68;0.50;;;24.40;94.80;;;;;;5011487;28;20224;-81
2022/07/13 12:28:09;;;;;;;1.17;0.60;;;24.30;95.60;;;;;;4990037;28;20244;-81
2022/07/13 12:30:37;;;;;;;0.45;0.43;;;24.30;95.60;;;;;;4986433;28;20237;-82
2022/07/13 12:33:04;;;;;;;0.65;0.65;;;24.20;94.70;;;;;;4998144;28;20177;-81
2022/07/13 12:35:32;;;;;;;0.88;0.73;;;24.00;96.00;;;;;;4993990;28;20190;-80
2022/07/13 12:37:59;;;;;;;0.60;0.60;;;24.00;96.00;;;;;;4986382;28;20269;-82
2022/07/13 12:40:44;;;;;;;1.55;0.80;;;23.90;96.60;;;;;;4997353;28;20764;-81
2022/07/13 12:43:21;;;;;;;0.77;0.70;;;23.80;96.30;;;;;;5000576;28;20181;-81
2022/07/13 12:46:00;;;;;;;0.45;0.45;;;23.70;97.30;;;;;;4992751;28;20254;-84
2022/07/13 12:48:30;;;;;;;0.50;0.50;;;23.70;98.00;;;;;;4978886;28;20240;-83
2022/07/13 12:51:07;;;;;;;0.60;0.60;;;23.60;98.30;;;;;;4994583;28;20542;-81
2022/07/13 12:53:58;;;;;;;0.98;0.60;;;23.70;97.90;;;;;;4981340;28;20170;-81
2022/07/13 12:56:26;;;;;;;0.77;0.65;;;23.90;98.80;;;;;;4996536;28;20186;-81
2022/07/13 12:58:53;;;;;;;1.10;1.00;;;24.10;97.50;;;;;;4996444;28;20188;-81
2022/07/13 13:01:33;;;;;;;0.50;0.50;;;24.30;99.20;;;;;;5005515;28;20196;-82